WetterOnline ( http://www.wetteronline.ch )

Wetter aktuell Emden

Aktuelles Wetter: Emden (5m)

6-stündlich | Neueste Meldungen
Ortszeit Temperatur Wetter
Mo, 21.01. 19:00 0.4° C wolkig
Mo, 21.01. 13:00 0.4° C bedeckt
Mo, 21.01. 7:00 -4.3° C bewölkt
Mo, 21.01. 1:00 -5.8° C fast wolkenlos
So, 20.01. 19:00 -3.7° C wolkenlos
So, 20.01. 13:00 -0.6° C bedeckt
So, 20.01. 7:00 -6.3° C wolkenlos
So, 20.01. 1:00 -5.4° C leicht bewölkt
Ortszeit Temperatur Wetter
Mo, 21.01. 21:00 -0.5° C leicht bewölkt
Mo, 21.01. 20:50 -0.5° C leicht bewölkt
Mo, 21.01. 20:40 -0.4° C wolkig
Mo, 21.01. 20:30 -0.0° C wolkig
Mo, 21.01. 20:20 -0.0° C wolkig
Mo, 21.01. 20:10 0.2° C wolkig
Mo, 21.01. 20:00 0.4° C bewölkt
Mo, 21.01. 19:30 0.5° C bewölkt
Mo, 21.01. 19:00 0.4° C wolkig
Mo, 21.01. 18:30 0.5° C wolkenlos
Mo, 21.01. 18:00 0.5° C wolkenlos
Ortszeit Relative Feuchte Sichtweite
Mo, 21.01. 19:00 92% 7 km
Mo, 21.01. 13:00 86% 12 km
Mo, 21.01. 7:00 95% 5.0 km
Mo, 21.01. 1:00 94% 4.4 km
So, 20.01. 19:00 93% 10 km
So, 20.01. 13:00 87% 11 km
So, 20.01. 7:00 95% 5.0 km
So, 20.01. 1:00 91% 19 km
Ortszeit Relative Feuchte Sichtweite
Mo, 21.01. 21:00 94% 5.0 km
Mo, 21.01. 20:50 94% -
Mo, 21.01. 20:40 93% -
Mo, 21.01. 20:30 92% 7 km
Mo, 21.01. 20:20 92% -
Mo, 21.01. 20:10 91% -
Mo, 21.01. 20:00 91% 8 km
Mo, 21.01. 19:30 91% 9 km
Mo, 21.01. 19:00 92% 7 km
Mo, 21.01. 18:30 92% 7 km
Mo, 21.01. 18:00 93% 6 km
Ortszeit Niederschlagsmenge Niederschlagsart
Mo, 21.01. 19:00 0.1 l/m2 in 12 Std. -
Mo, 21.01. 13:00 0.1 l/m2 in 6 Std. Sprühregen
Mo, 21.01. 7:00 0.0 l/m2 in 12 Std. -
Mo, 21.01. 1:00 0.0 l/m2 in 6 Std. -
So, 20.01. 19:00 0.0 l/m2 in 12 Std. -
So, 20.01. 13:00 0.0 l/m2 in 6 Std. -
So, 20.01. 7:00 0.0 l/m2 in 12 Std. -
So, 20.01. 1:00 0.0 l/m2 in 6 Std. -
Ortszeit Niederschlagsmenge Niederschlagsart
Mo, 21.01. 21:00 0.0 l/m2 in 1 Std. -
Mo, 21.01. 20:50 keine Meldung -
Mo, 21.01. 20:40 keine Meldung -
Mo, 21.01. 20:30 0.0 l/m2 in 1 Std. -
Mo, 21.01. 20:20 keine Meldung -
Mo, 21.01. 20:10 keine Meldung -
Mo, 21.01. 20:00 0.0 l/m2 in 1 Std. -
Mo, 21.01. 19:30 0.0 l/m2 in 1 Std. -
Mo, 21.01. 19:00 0.0 l/m2 in 1 Std. -
Mo, 21.01. 18:30 0.0 l/m2 in 1 Std. -
Mo, 21.01. 18:00 0.0 l/m2 in 1 Std. -
Ortszeit Stärke Spitze Richtung
km/h Bft. km/h Grad Sektor
Mo, 21.01. 19:00 11 2 18 200° S
Mo, 21.01. 13:00 7 2 17 220° SW
Mo, 21.01. 7:00 4 1 11 230° SW
Mo, 21.01. 1:00 4 1 7 190° S
So, 20.01. 19:00 6 1 9 20° N
So, 20.01. 13:00 7 2 11 90° O
So, 20.01. 7:00 4 1 11 120° SO
So, 20.01. 1:00 6 1 15 110° O
Ortszeit Stärke Spitze Richtung
km/h Bft. km/h Grad Sektor
Mo, 21.01. 21:00 7 2 18 200° S
Mo, 21.01. 20:50 7 2 - 200° S
Mo, 21.01. 20:40 7 2 - 200° S
Mo, 21.01. 20:30 11 2 17 210° SW
Mo, 21.01. 20:20 11 2 - 210° SW
Mo, 21.01. 20:10 13 3 - 210° SW
Mo, 21.01. 20:00 11 2 18 200° S
Mo, 21.01. 19:30 11 2 18 200° S
Mo, 21.01. 19:00 11 2 18 200° S
Mo, 21.01. 18:30 9 2 13 210° SW
Mo, 21.01. 18:00 9 2 15 220° SW
Ortszeit Untergrenze Bedeckung Gattung
total tief tief mittel hoch
Mo, 21.01. 19:00 180 m 6/8 6/8 - - -
Mo, 21.01. 13:00 690 m 8/8 8/8 - - -
Mo, 21.01. 7:00 3300 m 7/8 7/8 - - -
Mo, 21.01. 1:00 2700 m 1/8 1/8 - - -
So, 20.01. 19:00 - 0/8 0/8 - - -
So, 20.01. 13:00 3900 m 8/8 8/8 - - -
So, 20.01. 7:00 - 0/8 0/8 - - -
So, 20.01. 1:00 8400 m 5/8 0/8 - - -
Ortszeit Bedeckungsgrad in Achtel und Wolkenuntergrenze
Mo, 21.01. 21:00 4(1320m)
Mo, 21.01. 20:50 4(1320m)
Mo, 21.01. 20:40 5(1320m)
Mo, 21.01. 20:30 4(1260m) 5(1440m)
Mo, 21.01. 20:20 4(1260m) 5(1440m)
Mo, 21.01. 20:10 6(1230m) 6(1440m)
Mo, 21.01. 20:00 8(1170m) 7(1410m)
Mo, 21.01. 19:30 4(150m) 7(1140m) 7(1500m)
Mo, 21.01. 19:00 6(180m)
Mo, 21.01. 18:30 keine Wolken
Mo, 21.01. 18:00 keine Wolken
Ortszeit Luftdruck NN (hPa) Tendenz (hPa in 3 Std.)
Mo, 21.01. 19:00 1018 - 1,1
Mo, 21.01. 13:00 1021 - 0,9
Mo, 21.01. 7:00 1022 - 0,6
Mo, 21.01. 1:00 1023 + 0,4
So, 20.01. 19:00 1021 + 1,1
So, 20.01. 13:00 1020 + 1,0
So, 20.01. 7:00 1017 + 0,2
So, 20.01. 1:00 1017 + 0,1
Ortszeit Luftdruck NN (hPa) Tendenz (hPa in 3 Std.)
Mo, 21.01. 21:00 1018 - 0,9
Mo, 21.01. 20:50 1018 keine Meldung
Mo, 21.01. 20:40 1018 keine Meldung
Mo, 21.01. 20:30 1018 - 0,9
Mo, 21.01. 20:20 1018 keine Meldung
Mo, 21.01. 20:10 1018 keine Meldung
Mo, 21.01. 20:00 1018 - 1,0
Mo, 21.01. 19:30 1018 - 1,0
Mo, 21.01. 19:00 1018 - 1,1
Mo, 21.01. 18:30 1018 - 1,2
Mo, 21.01. 18:00 1018 - 1,2
Ortszeit Schneehöhe (cm)
Mo, 21.01. 19:00 0
Mo, 21.01. 13:00 0
Mo, 21.01. 7:00 0
Mo, 21.01. 1:00 0
So, 20.01. 19:00 0
So, 20.01. 13:00 0
So, 20.01. 7:00 0
So, 20.01. 1:00 0
Ortszeit Schneehöhe (cm)
Mo, 21.01. 21:00 0
Mo, 21.01. 20:50 0
Mo, 21.01. 20:40 0
Mo, 21.01. 20:30 0
Mo, 21.01. 20:20 0
Mo, 21.01. 20:10 0
Mo, 21.01. 20:00 0
Mo, 21.01. 19:30 0
Mo, 21.01. 19:00 0
Mo, 21.01. 18:30 0
Mo, 21.01. 18:00 0
Link zu dieser Seite / Seite empfehlen

Das Wetter in ...